createdAt,value
2017-12-27T00:01:41.950Z,73.20
2017-12-27T00:04:15.236Z,73.00
2017-12-27T00:06:48.173Z,73.00
2017-12-27T00:09:20.986Z,73.00
2017-12-27T00:11:53.754Z,72.90
2017-12-27T00:14:26.008Z,72.80
2017-12-27T00:16:58.354Z,73.40
2017-12-27T00:19:31.006Z,72.60
2017-12-27T00:22:03.345Z,72.70
2017-12-27T00:24:35.591Z,72.70
2017-12-27T00:27:09.080Z,73.10
2017-12-27T00:29:42.721Z,73.20
2017-12-27T00:32:14.809Z,73.20
2017-12-27T00:34:41.956Z,73.60
2017-12-27T00:37:09.122Z,74.40
2017-12-27T00:39:36.116Z,77.20
2017-12-27T00:42:02.627Z,76.50
2017-12-27T00:44:30.255Z,75.40
2017-12-27T00:46:57.464Z,75.40
2017-12-27T00:49:23.837Z,74.70
2017-12-27T00:51:50.844Z,73.90
2017-12-27T00:54:17.689Z,73.80
2017-12-27T00:56:44.174Z,73.80
2017-12-27T00:59:12.122Z,74.60
2017-12-27T01:01:38.331Z,74.60
2017-12-27T01:04:05.107Z,74.50
2017-12-27T01:06:31.585Z,74.70
2017-12-27T01:08:58.365Z,74.20
2017-12-27T01:11:24.553Z,74.40
2017-12-27T01:13:51.726Z,74.60
2017-12-27T01:16:17.987Z,74.80
2017-12-27T01:18:44.282Z,74.80
2017-12-27T01:21:10.531Z,75.40
2017-12-27T01:23:37.272Z,75.10
2017-12-27T01:26:03.549Z,74.90
2017-12-27T01:28:29.808Z,74.10
2017-12-27T01:30:56.135Z,73.90
2017-12-27T01:33:22.329Z,74.00
2017-12-27T01:35:49.177Z,74.50
2017-12-27T01:38:15.451Z,74.00
2017-12-27T01:40:42.161Z,73.90
2017-12-27T01:43:09.152Z,74.30
2017-12-27T01:45:35.870Z,73.60
2017-12-27T01:48:02.622Z,73.90
2017-12-27T01:50:29.697Z,73.60
2017-12-27T01:52:57.652Z,73.50
2017-12-27T01:55:24.638Z,73.60
2017-12-27T01:57:52.034Z,73.50
2017-12-27T02:00:18.356Z,73.40
2017-12-27T02:02:44.664Z,73.40
2017-12-27T02:05:10.886Z,73.50
2017-12-27T02:07:37.403Z,74.10
2017-12-27T02:10:04.487Z,75.20
2017-12-27T02:12:31.703Z,75.10
2017-12-27T02:14:58.802Z,75.70
2017-12-27T02:17:25.593Z,76.30
2017-12-27T02:19:52.457Z,75.50
2017-12-27T02:22:18.716Z,75.10
2017-12-27T02:24:45.515Z,74.90
2017-12-27T02:27:12.253Z,74.90
2017-12-27T02:29:39.048Z,75.40
2017-12-27T02:32:06.267Z,75.70
2017-12-27T02:34:32.488Z,75.60
2017-12-27T02:36:58.693Z,76.70
2017-12-27T02:42:39.510Z,75.60
2017-12-27T02:45:05.808Z,75.70
2017-12-27T02:47:32.028Z,75.70
2017-12-27T02:49:59.139Z,76.10
2017-12-27T02:52:26.738Z,76.60
2017-12-27T02:54:54.722Z,77.10
2017-12-27T02:57:21.819Z,77.10
2017-12-27T02:59:48.818Z,77.20
2017-12-27T03:02:15.567Z,76.00
2017-12-27T03:04:42.148Z,75.60
2017-12-27T03:07:09.656Z,75.30
2017-12-27T03:09:36.472Z,75.30
2017-12-27T03:12:03.653Z,75.00
2017-12-27T03:14:31.233Z,75.30
2017-12-27T03:16:58.448Z,75.30
2017-12-27T03:19:24.663Z,77.70
2017-12-27T03:21:51.682Z,77.30
2017-12-27T03:24:17.955Z,77.20
2017-12-27T03:26:44.541Z,76.60
2017-12-27T03:29:12.167Z,76.10
2017-12-27T03:31:39.824Z,76.00
2017-12-27T03:34:07.138Z,75.50
2017-12-27T03:36:34.247Z,74.80
2017-12-27T03:39:00.569Z,74.80
2017-12-27T03:41:27.798Z,74.80
2017-12-27T03:43:54.118Z,74.70
2017-12-27T03:46:20.346Z,74.40
2017-12-27T03:48:46.711Z,74.30
2017-12-27T03:51:14.863Z,74.30
2017-12-27T03:53:41.096Z,74.30
2017-12-27T03:56:08.195Z,74.30
2017-12-27T03:58:35.309Z,74.50
2017-12-27T04:01:01.545Z,74.50
2017-12-27T04:03:27.768Z,75.10
2017-12-27T04:05:54.611Z,75.80
2017-12-27T04:08:20.808Z,76.60
2017-12-27T04:10:47.028Z,76.50
2017-12-27T04:13:13.238Z,76.40
2017-12-27T04:15:40.468Z,76.10
2017-12-27T04:18:07.072Z,76.10
2017-12-27T04:20:33.133Z,76.90
2017-12-27T04:22:59.254Z,76.90
2017-12-27T04:25:25.997Z,76.70
2017-12-27T04:27:52.038Z,76.20
2017-12-27T04:30:19.127Z,76.40
2017-12-27T04:32:45.977Z,76.50
2017-12-27T04:35:13.446Z,76.40
2017-12-27T04:37:40.538Z,76.20
2017-12-27T04:40:07.367Z,75.50
2017-12-27T04:42:34.618Z,75.40
2017-12-27T04:45:01.436Z,76.20
2017-12-27T04:47:27.520Z,75.50
2017-12-27T04:49:53.614Z,75.80
2017-12-27T04:52:19.718Z,76.10
2017-12-27T04:54:45.779Z,76.00
2017-12-27T04:57:12.602Z,77.60
2017-12-27T04:59:39.449Z,76.90
2017-12-27T05:02:06.247Z,77.00
2017-12-27T05:04:33.063Z,77.00
2017-12-27T05:06:59.138Z,76.40
2017-12-27T05:09:25.202Z,76.80
2017-12-27T05:11:51.741Z,76.60
2017-12-27T05:14:18.693Z,76.10
2017-12-27T05:16:45.280Z,76.10
2017-12-27T05:19:11.367Z,76.90
2017-12-27T05:21:37.427Z,76.40
2017-12-27T05:24:03.552Z,76.80
2017-12-27T05:26:29.808Z,77.10
2017-12-27T05:28:56.770Z,77.00
2017-12-27T05:31:23.338Z,77.00
2017-12-27T05:33:50.823Z,76.50
2017-12-27T05:36:17.375Z,76.50
2017-12-27T05:38:44.204Z,76.90
2017-12-27T05:41:10.854Z,76.90
2017-12-27T05:43:37.866Z,76.30
2017-12-27T05:46:04.701Z,76.10
2017-12-27T05:48:31.061Z,76.10
2017-12-27T05:50:57.136Z,76.20
2017-12-27T05:53:23.204Z,75.20
2017-12-27T05:55:49.309Z,75.50
2017-12-27T05:58:15.391Z,75.60
2017-12-27T06:00:41.479Z,76.30
2017-12-27T06:03:07.568Z,76.00
2017-12-27T06:05:33.628Z,76.50
2017-12-27T06:07:59.719Z,76.30
2017-12-27T06:10:25.761Z,76.00
2017-12-27T06:12:52.539Z,75.70
2017-12-27T06:15:19.771Z,76.90
2017-12-27T06:17:46.626Z,76.70
2017-12-27T06:20:13.556Z,76.50
2017-12-27T06:22:40.285Z,76.40
2017-12-27T06:25:06.773Z,76.50
2017-12-27T06:27:33.666Z,75.80
2017-12-27T06:29:59.866Z,75.70
2017-12-27T06:32:26.676Z,75.40
2017-12-27T06:34:53.203Z,75.60
2017-12-27T06:37:20.251Z,76.90
2017-12-27T06:39:47.480Z,76.70
2017-12-27T06:42:14.549Z,76.40
2017-12-27T06:44:41.098Z,76.40
2017-12-27T06:47:07.165Z,75.60
2017-12-27T06:49:34.246Z,75.80
2017-12-27T06:52:01.272Z,75.60
2017-12-27T06:54:28.029Z,75.60
2017-12-27T06:56:55.329Z,75.60
2017-12-27T06:59:21.972Z,75.40
2017-12-27T07:01:49.678Z,76.10
2017-12-27T07:04:16.998Z,76.00
2017-12-27T07:06:43.838Z,76.30
2017-12-27T07:09:10.995Z,76.30
2017-12-27T07:11:38.002Z,76.40
2017-12-27T07:14:04.605Z,76.30
2017-12-27T07:16:31.792Z,75.70
2017-12-27T07:18:58.654Z,75.90
2017-12-27T07:21:24.764Z,75.90
2017-12-27T07:23:51.604Z,76.30
2017-12-27T07:26:17.812Z,76.10
2017-12-27T07:28:44.970Z,75.70
2017-12-27T07:31:11.804Z,76.00
2017-12-27T07:33:38.303Z,75.70
2017-12-27T07:36:12.362Z,75.60
2017-12-27T07:38:39.986Z,75.60
2017-12-27T07:41:07.088Z,75.40
2017-12-27T07:43:33.671Z,75.30
2017-12-27T07:46:00.790Z,75.40
2017-12-27T07:48:27.369Z,75.40
2017-12-27T07:50:54.200Z,75.30
2017-12-27T07:53:20.446Z,75.30
2017-12-27T07:55:47.647Z,75.40
2017-12-27T07:58:13.757Z,75.90
2017-12-27T08:00:40.271Z,75.90
2017-12-27T08:03:08.824Z,75.60
2017-12-27T08:05:36.820Z,75.70
2017-12-27T08:08:03.035Z,75.70
2017-12-27T08:10:29.798Z,75.40
2017-12-27T08:12:56.357Z,75.00
2017-12-27T08:15:23.908Z,75.40
2017-12-27T08:17:50.127Z,75.40
2017-12-27T08:20:16.332Z,75.60
2017-12-27T08:22:42.590Z,75.70
2017-12-27T08:25:08.908Z,75.50
2017-12-27T08:27:36.192Z,75.20
2017-12-27T08:30:02.487Z,75.80
2017-12-27T08:32:29.535Z,75.60
2017-12-27T08:34:55.768Z,75.70
2017-12-27T08:37:22.509Z,76.00
2017-12-27T08:39:48.708Z,76.90
2017-12-27T08:42:15.593Z,76.90
2017-12-27T08:44:42.164Z,76.90
2017-12-27T08:47:10.059Z,76.70
2017-12-27T08:49:36.282Z,76.70
2017-12-27T08:52:03.183Z,77.50
2017-12-27T08:54:29.427Z,77.50
2017-12-27T08:56:56.999Z,77.30
2017-12-27T08:59:24.385Z,77.80
2017-12-27T09:01:50.801Z,77.00
2017-12-27T09:04:18.273Z,76.50
2017-12-27T09:06:45.125Z,76.50
2017-12-27T09:09:11.834Z,76.50
2017-12-27T09:11:38.062Z,76.80
2017-12-27T09:14:04.773Z,76.40
2017-12-27T09:16:32.124Z,76.70
2017-12-27T09:18:59.646Z,77.10
2017-12-27T09:21:26.698Z,77.20
2017-12-27T09:23:53.262Z,77.10
2017-12-27T09:26:20.251Z,76.80
2017-12-27T09:28:46.667Z,76.80
2017-12-27T09:31:14.207Z,77.00
2017-12-27T09:33:40.571Z,77.00
2017-12-27T09:36:06.918Z,77.70
2017-12-27T09:38:33.147Z,78.20
2017-12-27T09:40:59.902Z,78.60
2017-12-27T09:43:27.142Z,78.50
2017-12-27T09:45:54.360Z,78.70
2017-12-27T09:48:20.808Z,79.10
2017-12-27T09:50:49.119Z,78.50
2017-12-27T09:53:15.335Z,78.50
2017-12-27T09:55:41.575Z,79.40
2017-12-27T09:58:08.152Z,79.10
2017-12-27T10:00:35.111Z,79.20
2017-12-27T10:03:01.681Z,79.10
2017-12-27T10:05:28.820Z,79.00
2017-12-27T10:07:55.314Z,78.70
2017-12-27T10:10:22.692Z,78.90
2017-12-27T10:12:48.943Z,78.90
2017-12-27T10:15:15.217Z,78.60
2017-12-27T10:17:41.474Z,79.40
2017-12-27T10:20:08.361Z,78.20
2017-12-27T10:22:35.587Z,77.70
2017-12-27T10:25:01.832Z,77.80
2017-12-27T10:27:28.170Z,77.80
2017-12-27T10:29:54.449Z,77.40
2017-12-27T10:32:21.053Z,77.60
2017-12-27T10:34:48.550Z,78.40
2017-12-27T10:37:15.335Z,78.30
2017-12-27T10:39:42.371Z,78.30
2017-12-27T10:42:09.174Z,78.20
2017-12-27T10:44:35.425Z,78.40
2017-12-27T10:47:02.304Z,78.50
2017-12-27T10:49:29.124Z,78.30
2017-12-27T10:51:55.316Z,78.50
2017-12-27T10:54:21.528Z,78.70
2017-12-27T10:56:49.065Z,79.00
2017-12-27T10:59:16.113Z,79.00
2017-12-27T11:01:42.333Z,79.00
2017-12-27T11:04:08.590Z,78.90
2017-12-27T11:06:36.591Z,78.60
2017-12-27T11:09:02.948Z,78.70
2017-12-27T11:11:30.220Z,78.70
2017-12-27T11:13:57.226Z,77.90
2017-12-27T11:16:23.515Z,77.90
2017-12-27T11:18:50.782Z,77.80
2017-12-27T11:21:17.308Z,77.80
2017-12-27T11:23:44.384Z,77.50
2017-12-27T11:26:10.664Z,77.50
2017-12-27T11:28:36.921Z,77.80
2017-12-27T11:31:03.665Z,77.40
2017-12-27T11:33:29.962Z,76.70
2017-12-27T11:35:56.199Z,77.00
2017-12-27T11:38:23.273Z,77.00
2017-12-27T11:40:50.478Z,76.90
2017-12-27T11:43:17.448Z,77.40
2017-12-27T11:45:44.432Z,76.90
2017-12-27T11:48:11.257Z,77.00
2017-12-27T11:50:37.486Z,76.30
2017-12-27T11:53:04.789Z,76.20
2017-12-27T11:55:31.091Z,75.80
2017-12-27T11:57:57.309Z,75.50
2017-12-27T12:00:24.170Z,74.60
2017-12-27T12:02:50.872Z,73.80
2017-12-27T12:05:17.341Z,74.70
2017-12-27T12:07:45.018Z,72.50
2017-12-27T12:10:11.484Z,72.50
2017-12-27T12:12:38.558Z,71.90
2017-12-27T12:15:04.818Z,71.90
2017-12-27T12:17:31.859Z,72.40
2017-12-27T12:19:58.630Z,69.70
2017-12-27T12:22:25.420Z,70.60
2017-12-27T12:24:52.281Z,69.10
2017-12-27T12:27:19.705Z,68.80
2017-12-27T12:29:47.427Z,65.60
2017-12-27T12:32:15.489Z,65.70
2017-12-27T12:34:43.204Z,65.70
2017-12-27T12:37:09.945Z,66.10
2017-12-27T12:39:37.093Z,65.80
2017-12-27T12:42:03.282Z,63.70
2017-12-27T12:44:29.539Z,66.50
2017-12-27T12:46:55.786Z,66.70
2017-12-27T12:49:22.011Z,66.00
2017-12-27T12:51:48.298Z,65.00
2017-12-27T12:54:15.017Z,65.80
2017-12-27T12:56:41.817Z,67.40
2017-12-27T12:59:08.103Z,67.80
2017-12-27T13:01:35.586Z,66.40
2017-12-27T13:04:02.408Z,66.30
2017-12-27T13:06:29.389Z,67.80
2017-12-27T13:08:56.097Z,68.40
2017-12-27T13:11:23.791Z,68.00
2017-12-27T13:13:50.296Z,68.70
2017-12-27T13:16:17.993Z,68.20
2017-12-27T13:18:44.218Z,68.20
2017-12-27T13:21:11.503Z,67.90
2017-12-27T13:23:38.221Z,67.80
2017-12-27T13:26:04.859Z,67.90
2017-12-27T13:28:32.332Z,68.90
2017-12-27T13:30:58.559Z,69.40
2017-12-27T13:33:25.312Z,69.30
2017-12-27T13:35:51.916Z,69.00
2017-12-27T13:38:19.520Z,69.90
2017-12-27T13:40:47.178Z,70.10
2017-12-27T13:43:13.423Z,70.00
2017-12-27T13:45:40.391Z,70.40
2017-12-27T13:48:06.752Z,70.30
2017-12-27T13:50:34.231Z,70.30
2017-12-27T13:53:01.299Z,70.80
2017-12-27T13:55:28.038Z,71.00
2017-12-27T13:57:56.359Z,71.30
2017-12-27T14:00:23.610Z,71.20
2017-12-27T14:02:51.554Z,71.40
2017-12-27T14:05:17.783Z,71.40
2017-12-27T14:07:46.117Z,71.90
2017-12-27T14:10:12.923Z,71.80
2017-12-27T14:12:40.987Z,71.90
2017-12-27T14:15:07.626Z,72.20
2017-12-27T14:17:35.451Z,72.50
2017-12-27T14:20:02.958Z,72.70
2017-12-27T14:22:30.208Z,72.60
2017-12-27T14:24:56.458Z,72.70
2017-12-27T14:27:23.761Z,72.40
2017-12-27T14:29:50.748Z,72.60
2017-12-27T14:32:17.036Z,72.60
2017-12-27T14:34:44.444Z,72.40
2017-12-27T14:37:12.144Z,72.40
2017-12-27T14:39:39.151Z,72.40
2017-12-27T14:42:05.407Z,72.40
2017-12-27T14:44:32.094Z,72.50
2017-12-27T14:46:58.802Z,72.80
2017-12-27T14:49:26.621Z,73.10
2017-12-27T14:51:53.667Z,73.60
2017-12-27T14:54:19.898Z,73.50
2017-12-27T14:56:46.251Z,73.50
2017-12-27T14:59:13.640Z,74.60
2017-12-27T15:01:39.930Z,74.30
2017-12-27T15:04:06.525Z,73.80
2017-12-27T15:06:33.562Z,73.80
2017-12-27T15:09:00.298Z,73.70
2017-12-27T15:11:27.168Z,74.40
2017-12-27T15:13:53.582Z,74.50
2017-12-27T15:16:21.054Z,74.30
2017-12-27T15:18:48.634Z,74.80
2017-12-27T15:21:16.270Z,75.00
2017-12-27T15:23:43.108Z,75.00
2017-12-27T15:26:09.871Z,75.40
2017-12-27T15:28:36.090Z,75.50
2017-12-27T15:31:04.932Z,76.70
2017-12-27T15:33:32.096Z,76.50
2017-12-27T15:35:58.850Z,76.00
2017-12-27T15:38:25.749Z,75.10
2017-12-27T15:40:52.951Z,75.60
2017-12-27T15:43:19.225Z,75.60
2017-12-27T15:45:45.657Z,75.60
2017-12-27T15:48:11.889Z,76.20
2017-12-27T15:50:38.143Z,75.80
2017-12-27T15:53:04.373Z,75.30
2017-12-27T15:55:30.630Z,76.10
2017-12-27T15:57:57.791Z,75.60
2017-12-27T16:00:24.052Z,75.40
2017-12-27T16:02:50.776Z,75.80
2017-12-27T16:05:17.059Z,76.10
2017-12-27T16:07:43.330Z,76.20
2017-12-27T16:10:09.619Z,75.90
2017-12-27T16:12:35.802Z,75.50
2017-12-27T16:15:02.070Z,74.90
2017-12-27T16:17:29.050Z,75.40
2017-12-27T16:19:55.775Z,75.20
2017-12-27T16:22:22.802Z,74.60
2017-12-27T16:24:49.652Z,74.60
2017-12-27T16:27:15.888Z,74.60
2017-12-27T16:29:42.091Z,74.70
2017-12-27T16:32:09.410Z,74.60
2017-12-27T16:34:36.059Z,74.40
2017-12-27T16:37:02.343Z,74.30
2017-12-27T16:39:29.729Z,75.00
2017-12-27T16:41:56.557Z,76.30
2017-12-27T16:44:23.491Z,76.80
2017-12-27T16:46:49.921Z,77.00
2017-12-27T16:49:16.343Z,77.40
2017-12-27T16:51:42.598Z,77.30
2017-12-27T16:54:09.124Z,77.50
2017-12-27T16:56:35.430Z,77.50
2017-12-27T16:59:02.773Z,78.10
2017-12-27T17:01:30.253Z,78.10
2017-12-27T17:03:56.565Z,78.10
2017-12-27T17:06:23.943Z,78.10
2017-12-27T17:08:50.884Z,78.40
2017-12-27T17:11:17.105Z,78.40
2017-12-27T17:13:44.022Z,78.40
2017-12-27T17:16:10.617Z,78.50
2017-12-27T17:18:36.730Z,77.60
2017-12-27T17:21:02.848Z,77.60
2017-12-27T17:23:29.152Z,77.90
2017-12-27T17:25:56.562Z,76.90
2017-12-27T17:28:23.779Z,76.20
2017-12-27T17:30:50.270Z,75.40
2017-12-27T17:33:17.856Z,77.10
2017-12-27T17:35:45.849Z,77.10
2017-12-27T17:38:12.711Z,77.60
2017-12-27T17:40:39.128Z,77.80
2017-12-27T17:43:05.800Z,77.90
2017-12-27T17:45:33.678Z,77.80
2017-12-27T17:48:02.953Z,78.00
2017-12-27T17:50:29.260Z,77.90
2017-12-27T17:52:55.578Z,77.80
2017-12-27T17:55:22.448Z,77.50
2017-12-27T17:57:50.197Z,77.10
2017-12-27T18:00:16.580Z,77.00
2017-12-27T18:02:44.093Z,77.30
2017-12-27T18:05:11.424Z,77.40
2017-12-27T18:07:37.674Z,77.40
2017-12-27T18:10:04.749Z,77.10
2017-12-27T18:12:31.857Z,76.70
2017-12-27T18:14:58.478Z,76.60
2017-12-27T18:17:25.233Z,76.50
2017-12-27T18:19:52.183Z,76.40
2017-12-27T18:22:18.429Z,76.30
2017-12-27T18:24:45.194Z,76.30
2017-12-27T18:27:12.064Z,76.40
2017-12-27T18:29:39.122Z,76.40
2017-12-27T18:32:05.377Z,76.50
2017-12-27T18:34:32.832Z,76.40
2017-12-27T18:37:04.262Z,77.20
2017-12-27T18:39:35.446Z,77.20
2017-12-27T18:42:02.602Z,76.80
2017-12-27T18:44:31.004Z,76.60
2017-12-27T18:46:57.913Z,76.60
2017-12-27T18:49:24.332Z,77.30
2017-12-27T18:51:50.614Z,77.70
2017-12-27T18:54:17.493Z,77.40
2017-12-27T18:56:44.625Z,77.00
2017-12-27T18:59:11.576Z,76.70
2017-12-27T19:01:38.610Z,76.50
2017-12-27T19:04:05.063Z,76.90
2017-12-27T19:06:32.629Z,77.00
2017-12-27T19:08:59.916Z,77.30
2017-12-27T19:11:27.094Z,78.30
2017-12-27T19:13:53.693Z,78.20
2017-12-27T19:16:20.446Z,78.00
2017-12-27T19:18:46.851Z,77.80
2017-12-27T19:21:13.123Z,78.00
2017-12-27T19:23:39.416Z,77.70
2017-12-27T19:26:05.818Z,77.50
2017-12-27T19:28:32.590Z,77.40
2017-12-27T19:30:58.836Z,77.30
2017-12-27T19:43:05.154Z,77.30
2017-12-27T19:45:33.092Z,78.00
2017-12-27T19:48:00.168Z,78.90
2017-12-27T19:50:27.032Z,78.90
2017-12-27T19:52:53.422Z,78.60
2017-12-27T19:55:21.184Z,78.00
2017-12-27T19:57:48.352Z,78.50
2017-12-27T20:00:15.325Z,77.80
2017-12-27T20:02:42.759Z,77.70
2017-12-27T20:05:09.439Z,77.50
2017-12-27T20:07:36.500Z,77.50
2017-12-27T20:10:02.819Z,77.50
2017-12-27T20:12:29.134Z,77.60
2017-12-27T20:14:55.445Z,77.40
2017-12-27T20:17:22.944Z,77.70
2017-12-27T20:19:49.974Z,77.70
2017-12-27T20:22:17.035Z,77.80
2017-12-27T20:24:43.364Z,77.70
2017-12-27T20:27:09.686Z,77.70
2017-12-27T20:29:36.084Z,77.70
2017-12-27T20:32:04.003Z,78.30
2017-12-27T20:34:30.915Z,78.30
2017-12-27T20:36:57.589Z,78.20
2017-12-27T20:39:24.559Z,78.00
2017-12-27T20:41:51.459Z,77.60
2017-12-27T20:44:17.833Z,77.60
2017-12-27T20:46:44.235Z,77.50
2017-12-27T20:49:11.088Z,77.60
2017-12-27T20:51:37.576Z,81.30
2017-12-27T20:54:05.352Z,78.60
2017-12-27T20:56:33.456Z,77.90
2017-12-27T20:59:00.481Z,77.90
2017-12-27T21:01:50.292Z,77.30
2017-12-27T21:04:19.432Z,77.60
2017-12-27T21:06:46.937Z,77.50
2017-12-27T21:09:24.755Z,77.30
2017-12-27T21:21:40.224Z,77.20
2017-12-27T21:24:07.542Z,76.00
2017-12-27T21:26:35.680Z,76.40
2017-12-27T21:29:01.940Z,76.40
2017-12-27T21:31:28.789Z,76.60
2017-12-27T21:34:05.978Z,76.80
2017-12-27T21:36:32.359Z,77.10
2017-12-27T21:39:02.085Z,76.50
2017-12-27T21:54:29.727Z,76.50
2017-12-27T21:56:56.975Z,77.40
2017-12-27T21:59:29.386Z,77.80
2017-12-27T22:01:55.913Z,78.30
2017-12-27T22:04:23.960Z,78.00
2017-12-27T22:06:51.549Z,78.00
2017-12-27T22:09:17.771Z,78.00
2017-12-27T22:11:44.595Z,78.20
2017-12-27T22:14:10.851Z,78.00
2017-12-27T22:16:37.233Z,78.00
2017-12-27T22:19:04.933Z,78.00
2017-12-27T22:21:31.551Z,77.90
2017-12-27T22:23:59.757Z,77.90
2017-12-27T22:26:26.239Z,77.90
2017-12-27T22:28:53.277Z,77.90
2017-12-27T22:31:20.065Z,77.70
2017-12-27T22:33:47.555Z,77.60
2017-12-27T22:36:14.473Z,77.70
2017-12-27T22:38:41.373Z,77.70
2017-12-27T22:41:08.763Z,77.30
2017-12-27T22:43:35.953Z,77.50
2017-12-27T22:46:03.151Z,77.40
2017-12-27T22:48:30.742Z,76.90
2017-12-27T22:50:57.580Z,76.90
2017-12-27T22:53:24.871Z,76.90
2017-12-27T22:55:51.244Z,77.10
2017-12-27T22:58:17.525Z,76.90
2017-12-27T23:00:44.563Z,77.00
2017-12-27T23:03:11.286Z,77.10
2017-12-27T23:05:38.246Z,77.10
2017-12-27T23:08:05.423Z,77.10
2017-12-27T23:10:32.939Z,77.00
2017-12-27T23:13:00.706Z,77.10
2017-12-27T23:15:27.972Z,77.20
2017-12-27T23:17:55.419Z,76.90
2017-12-27T23:20:22.863Z,76.70
2017-12-27T23:22:50.094Z,76.80
2017-12-27T23:25:17.795Z,76.70
2017-12-27T23:27:45.311Z,76.80
2017-12-27T23:30:13.350Z,77.20
2017-12-27T23:32:40.027Z,77.00
2017-12-27T23:35:07.035Z,77.40
2017-12-27T23:37:35.041Z,77.30
2017-12-27T23:40:02.517Z,77.10
2017-12-27T23:42:29.187Z,77.00
2017-12-27T23:44:55.406Z,77.10
2017-12-27T23:47:22.993Z,76.80
2017-12-27T23:49:49.294Z,76.80
2017-12-27T23:52:16.235Z,76.70
2017-12-27T23:54:43.096Z,76.70
2017-12-27T23:57:09.295Z,76.70
2017-12-27T23:59:36.090Z,77.10
